createdAt,value
2023-04-21T00:00:03.488Z,7.47
2023-04-21T00:01:03.494Z,7.48
2023-04-21T00:02:03.518Z,7.27
2023-04-21T00:03:03.747Z,7.34
2023-04-21T00:04:03.605Z,7.40
2023-04-21T00:05:03.596Z,7.24
2023-04-21T00:06:03.541Z,7.43
2023-04-21T00:07:03.548Z,7.17
2023-04-21T00:08:03.536Z,7.42
2023-04-21T00:09:03.538Z,6.95
2023-04-21T00:10:03.557Z,6.67
2023-04-21T00:11:03.534Z,6.94
2023-04-21T00:12:03.528Z,6.66
2023-04-21T00:13:03.539Z,6.56
2023-04-21T00:14:03.551Z,6.89
2023-04-21T00:15:03.570Z,6.98
2023-04-21T00:16:03.629Z,6.94
2023-04-21T00:17:03.599Z,6.71
2023-04-21T00:18:03.627Z,6.70
2023-04-21T00:19:03.590Z,7.44
2023-04-21T00:20:03.588Z,7.25
2023-04-21T00:21:03.570Z,7.39
2023-04-21T00:22:03.580Z,7.78
2023-04-21T00:23:03.606Z,7.64
2023-04-21T00:24:03.607Z,7.62
2023-04-21T00:25:03.591Z,7.78
2023-04-21T00:26:03.575Z,7.90
2023-04-21T00:27:03.584Z,7.82
2023-04-21T00:28:03.569Z,7.30
2023-04-21T00:29:03.605Z,7.81
2023-04-21T00:30:03.615Z,7.88
2023-04-21T00:31:03.612Z,8.04
2023-04-21T00:32:03.606Z,8.01
2023-04-21T00:33:03.673Z,7.92
2023-04-21T00:34:03.623Z,8.10
2023-04-21T00:35:03.632Z,7.96
2023-04-21T00:36:03.614Z,7.48
2023-04-21T00:37:03.630Z,7.30
2023-04-21T00:38:03.653Z,6.88
2023-04-21T00:39:03.642Z,7.34
2023-04-21T00:40:03.651Z,8.05
2023-04-21T00:41:03.656Z,7.81
2023-04-21T00:42:03.676Z,7.41
2023-04-21T00:43:03.639Z,7.43
2023-04-21T00:44:03.648Z,7.33
2023-04-21T00:45:03.640Z,7.44
2023-04-21T00:46:03.642Z,7.39
2023-04-21T00:47:03.741Z,7.50
2023-04-21T00:48:03.706Z,7.50
2023-04-21T00:49:03.664Z,7.51
2023-04-21T00:50:03.669Z,7.65
2023-04-21T00:51:03.663Z,7.75
2023-04-21T00:52:03.651Z,7.93
2023-04-21T00:53:03.653Z,7.85
2023-04-21T00:54:03.634Z,7.88
2023-04-21T00:55:03.649Z,7.79
2023-04-21T00:56:03.638Z,8.06
2023-04-21T00:57:03.651Z,7.97
2023-04-21T00:58:03.646Z,8.13
2023-04-21T00:59:03.654Z,8.18
2023-04-21T01:00:03.634Z,8.04
2023-04-21T01:01:03.684Z,8.28
2023-04-21T01:02:03.682Z,8.43
2023-04-21T01:03:03.902Z,7.76
2023-04-21T01:04:03.845Z,7.06
2023-04-21T01:05:03.649Z,7.27
2023-04-21T01:06:03.650Z,6.61
2023-04-21T01:07:03.662Z,6.34
2023-04-21T01:08:03.661Z,6.80
2023-04-21T01:09:03.658Z,7.11
2023-04-21T01:10:03.647Z,6.80
2023-04-21T01:11:03.636Z,6.76
2023-04-21T01:12:03.651Z,6.87
2023-04-21T01:13:03.643Z,6.99
2023-04-21T01:14:03.652Z,7.38
2023-04-21T01:15:03.654Z,7.64
2023-04-21T01:16:03.679Z,7.26
2023-04-21T01:17:03.706Z,7.24
2023-04-21T01:18:03.726Z,7.16
2023-04-21T01:19:03.646Z,7.07
2023-04-21T01:20:03.632Z,6.75
2023-04-21T01:21:03.653Z,6.79
2023-04-21T01:22:03.674Z,6.99
2023-04-21T01:23:03.656Z,6.66
2023-04-21T01:24:03.622Z,6.26
2023-04-21T01:25:03.643Z,6.27
2023-04-21T01:26:03.622Z,6.31
2023-04-21T01:27:03.621Z,6.22
2023-04-21T01:28:03.618Z,6.13
2023-04-21T01:29:03.650Z,5.72
2023-04-21T01:30:03.647Z,6.00
2023-04-21T01:31:03.625Z,5.85
2023-04-21T01:32:03.683Z,5.61
2023-04-21T01:33:03.693Z,5.59
2023-04-21T01:34:03.625Z,5.71
2023-04-21T01:35:03.627Z,5.66
2023-04-21T01:36:03.608Z,5.83
2023-04-21T01:37:03.625Z,5.92
2023-04-21T01:38:03.620Z,5.68
2023-04-21T01:39:03.624Z,5.12
2023-04-21T01:40:03.615Z,5.27
2023-04-21T01:41:03.615Z,5.20
2023-04-21T01:42:03.608Z,5.61
2023-04-21T01:43:03.604Z,5.42
2023-04-21T01:44:03.619Z,5.57
2023-04-21T01:45:03.625Z,5.53
2023-04-21T01:46:03.622Z,5.28
2023-04-21T01:47:03.621Z,4.92
2023-04-21T01:48:03.650Z,4.74
2023-04-21T01:49:03.656Z,5.51
2023-04-21T01:50:03.609Z,5.29
2023-04-21T01:51:03.613Z,5.44
2023-04-21T01:52:03.589Z,5.18
2023-04-21T01:53:03.603Z,5.89
2023-04-21T01:54:03.609Z,5.76
2023-04-21T01:55:03.628Z,5.60
2023-04-21T01:56:03.595Z,5.22
2023-04-21T01:57:03.640Z,5.13
2023-04-21T01:58:03.591Z,5.07
2023-04-21T01:59:03.646Z,4.83
2023-04-21T02:00:03.577Z,4.76
2023-04-21T02:01:03.629Z,4.51
2023-04-21T02:02:03.715Z,4.75
2023-04-21T02:03:03.734Z,4.55
2023-04-21T02:04:03.774Z,4.64
2023-04-21T02:05:03.609Z,5.18
2023-04-21T02:06:03.615Z,4.69
2023-04-21T02:07:03.605Z,5.10
2023-04-21T02:08:03.628Z,5.23
2023-04-21T02:09:03.633Z,4.83
2023-04-21T02:10:03.630Z,4.80
2023-04-21T02:11:03.644Z,4.49
2023-04-21T02:12:03.640Z,4.71
2023-04-21T02:13:03.647Z,4.89
2023-04-21T02:14:03.644Z,5.45
2023-04-21T02:15:03.667Z,5.36
2023-04-21T02:16:13.392Z,5.61
2023-04-21T02:17:04.637Z,5.50
2023-04-21T02:18:03.648Z,5.16
2023-04-21T02:19:03.732Z,5.57
2023-04-21T02:20:04.225Z,5.64
2023-04-21T02:21:03.633Z,5.68
2023-04-21T02:22:03.626Z,5.74
2023-04-21T02:23:03.608Z,5.30
2023-04-21T02:24:03.597Z,5.21
2023-04-21T02:25:03.596Z,5.15
2023-04-21T02:26:03.589Z,4.99
2023-04-21T02:27:03.576Z,4.90
2023-04-21T02:28:03.574Z,4.45
2023-04-21T02:29:03.568Z,4.41
2023-04-21T02:30:03.542Z,4.94
2023-04-21T02:31:03.580Z,4.58
2023-04-21T02:32:14.265Z,4.76
2023-04-21T02:33:04.577Z,4.77
2023-04-21T02:34:03.531Z,4.82
2023-04-21T02:35:03.512Z,4.86
2023-04-21T02:36:03.524Z,5.07
2023-04-21T02:37:03.507Z,4.96
2023-04-21T02:38:03.488Z,4.92
2023-04-21T02:39:03.480Z,4.88
2023-04-21T02:40:03.502Z,4.89
2023-04-21T02:41:03.464Z,5.09
2023-04-21T02:42:03.464Z,4.91
2023-04-21T02:43:03.460Z,4.71
2023-04-21T02:44:03.441Z,4.81
2023-04-21T02:45:03.454Z,5.30
2023-04-21T02:46:03.485Z,4.95
2023-04-21T02:47:03.463Z,4.90
2023-04-21T02:48:03.442Z,5.00
2023-04-21T02:49:03.423Z,5.24
2023-04-21T02:50:03.421Z,5.47
2023-04-21T02:51:03.413Z,5.45
2023-04-21T02:52:03.386Z,5.50
2023-04-21T02:53:03.391Z,5.69
2023-04-21T02:54:03.363Z,5.63
2023-04-21T02:55:03.379Z,5.80
2023-04-21T02:56:03.397Z,6.25
2023-04-21T02:57:03.390Z,6.55
2023-04-21T02:58:03.399Z,6.34
2023-04-21T02:59:03.400Z,6.38
2023-04-21T03:00:03.398Z,6.33
2023-04-21T03:01:03.447Z,6.44
2023-04-21T03:02:03.463Z,6.50
2023-04-21T03:03:03.656Z,5.93
2023-04-21T03:04:03.539Z,5.52
2023-04-21T03:05:03.422Z,5.31
2023-04-21T03:06:03.445Z,4.91
2023-04-21T03:07:03.464Z,4.89
2023-04-21T03:08:03.428Z,4.71
2023-04-21T03:09:03.430Z,4.83
2023-04-21T03:10:03.461Z,4.82
2023-04-21T03:11:03.494Z,4.84
2023-04-21T03:12:03.668Z,4.71
2023-04-21T03:13:03.827Z,4.90
2023-04-21T03:14:04.022Z,5.27
2023-04-21T03:15:04.183Z,5.21
2023-04-21T03:16:04.341Z,5.69
2023-04-21T03:17:04.462Z,5.98
2023-04-21T03:18:04.679Z,5.88
2023-04-21T03:19:04.784Z,5.78
2023-04-21T03:20:04.916Z,5.72
2023-04-21T03:21:05.111Z,5.98
2023-04-21T03:22:05.286Z,5.99
2023-04-21T03:23:05.461Z,5.80
2023-04-21T03:24:05.592Z,5.61
2023-04-21T03:25:05.753Z,5.63
2023-04-21T03:26:05.893Z,5.33
2023-04-21T03:27:06.060Z,5.53
2023-04-21T03:28:06.240Z,5.22
2023-04-21T03:29:06.391Z,5.35
2023-04-21T03:30:06.469Z,5.46
2023-04-21T03:31:06.632Z,5.46
2023-04-21T03:32:06.756Z,5.70
2023-04-21T03:33:07.058Z,5.04
2023-04-21T03:34:07.093Z,4.54
2023-04-21T03:35:07.273Z,4.78
2023-04-21T03:36:07.413Z,4.73
2023-04-21T03:37:07.549Z,4.90
2023-04-21T03:38:07.700Z,5.10
2023-04-21T03:39:19.394Z,5.14
2023-04-21T03:40:08.764Z,5.15
2023-04-21T03:41:07.731Z,5.15
2023-04-21T03:42:07.724Z,5.17
2023-04-21T03:43:07.710Z,5.33
2023-04-21T03:44:07.742Z,5.05
2023-04-21T03:45:07.703Z,5.00
2023-04-21T03:46:07.773Z,5.40
2023-04-21T03:47:07.689Z,5.27
2023-04-21T03:48:07.769Z,5.68
2023-04-21T03:49:07.675Z,5.86
2023-04-21T03:50:07.677Z,5.91
2023-04-21T03:51:07.684Z,6.19
2023-04-21T03:52:07.692Z,5.86
2023-04-21T03:53:07.678Z,5.82
2023-04-21T03:54:07.654Z,5.96
2023-04-21T03:55:07.621Z,5.99
2023-04-21T03:56:07.623Z,5.69
2023-04-21T03:57:07.637Z,5.59
2023-04-21T03:58:07.630Z,5.76
2023-04-21T03:59:07.651Z,5.58
2023-04-21T04:00:07.628Z,5.58
2023-04-21T04:01:07.655Z,5.65
2023-04-21T04:02:07.733Z,5.46
2023-04-21T04:03:07.703Z,5.62
2023-04-21T04:04:07.983Z,5.42
2023-04-21T04:05:07.683Z,5.66
2023-04-21T04:06:07.625Z,5.83
2023-04-21T04:07:07.637Z,5.61
2023-04-21T04:08:07.630Z,5.55
2023-04-21T04:09:07.648Z,6.11
2023-04-21T04:10:07.669Z,6.12
2023-04-21T04:11:07.680Z,6.17
2023-04-21T04:12:08.703Z,6.46
2023-04-21T04:13:07.703Z,6.53
2023-04-21T04:14:07.672Z,6.09
2023-04-21T04:15:07.693Z,5.79
2023-04-21T04:16:07.760Z,5.70
2023-04-21T04:17:07.693Z,5.95
2023-04-21T04:18:07.779Z,5.81
2023-04-21T04:19:07.704Z,5.92
2023-04-21T04:20:07.726Z,5.34
2023-04-21T04:21:07.733Z,5.29
2023-04-21T04:22:07.723Z,5.38
2023-04-21T04:23:07.714Z,5.50
2023-04-21T04:24:07.738Z,5.86
2023-04-21T04:25:07.717Z,6.22
2023-04-21T04:26:07.731Z,6.36
2023-04-21T04:27:07.749Z,6.58
2023-04-21T04:28:07.724Z,6.53
2023-04-21T04:29:07.726Z,6.78
2023-04-21T04:30:07.737Z,6.40
2023-04-21T04:31:07.777Z,6.41
2023-04-21T04:32:07.764Z,6.67
2023-04-21T04:33:07.785Z,6.72
2023-04-21T04:34:07.768Z,6.56
2023-04-21T04:35:07.736Z,6.70
2023-04-21T04:36:07.755Z,6.58
2023-04-21T04:37:07.737Z,6.69
2023-04-21T04:38:07.738Z,6.46
2023-04-21T04:39:09.337Z,6.36
2023-04-21T04:40:07.770Z,6.12
2023-04-21T04:41:07.765Z,6.32
2023-04-21T04:42:07.762Z,6.65
2023-04-21T04:43:07.745Z,6.71
2023-04-21T04:44:07.776Z,7.04
2023-04-21T04:45:07.740Z,7.32
2023-04-21T04:46:07.770Z,7.36
2023-04-21T04:47:07.800Z,7.69
2023-04-21T04:48:07.780Z,7.64
2023-04-21T04:49:07.804Z,7.72
2023-04-21T04:50:07.824Z,7.82
2023-04-21T04:51:07.813Z,7.76
2023-04-21T04:52:07.792Z,7.84
2023-04-21T04:53:07.792Z,7.89
2023-04-21T04:54:07.825Z,8.21
2023-04-21T04:55:07.815Z,8.12
2023-04-21T04:56:07.831Z,8.20
2023-04-21T04:57:07.834Z,8.73
2023-04-21T04:58:07.873Z,8.74
2023-04-21T04:59:07.862Z,8.59
2023-04-21T05:00:07.898Z,8.67
2023-04-21T05:01:07.896Z,8.79
2023-04-21T05:02:08.076Z,8.65
2023-04-21T05:03:07.943Z,8.67
2023-04-21T05:04:08.064Z,8.58
2023-04-21T05:05:08.055Z,8.52
2023-04-21T05:06:07.907Z,8.92
2023-04-21T05:07:08.373Z,8.44
2023-04-21T05:08:07.922Z,8.70
2023-04-21T05:09:07.906Z,8.96
2023-04-21T05:10:07.890Z,8.49
2023-04-21T05:11:07.894Z,8.52
2023-04-21T05:12:07.934Z,8.55
2023-04-21T05:13:07.913Z,8.60
2023-04-21T05:14:07.892Z,8.54
2023-04-21T05:15:07.904Z,8.14
2023-04-21T05:16:07.911Z,8.36
2023-04-21T05:17:07.923Z,8.39
2023-04-21T05:18:07.974Z,8.47
2023-04-21T05:19:07.912Z,8.64
2023-04-21T05:20:07.893Z,8.44
2023-04-21T05:21:07.899Z,8.68
2023-04-21T05:22:07.901Z,8.54
2023-04-21T05:23:07.906Z,8.78
2023-04-21T05:24:07.887Z,8.65
2023-04-21T05:25:07.914Z,8.87
2023-04-21T05:26:07.889Z,9.01
2023-04-21T05:27:07.923Z,9.31
2023-04-21T05:28:07.962Z,9.26
2023-04-21T05:29:07.959Z,9.31
2023-04-21T05:30:07.943Z,9.70
2023-04-21T05:31:07.937Z,10.34
2023-04-21T05:32:08.006Z,11.01
2023-04-21T05:33:07.961Z,12.36
2023-04-21T05:34:07.980Z,13.28
2023-04-21T05:35:07.957Z,13.56
2023-04-21T05:36:07.986Z,13.55
2023-04-21T05:37:08.357Z,16.96
2023-04-21T05:38:08.055Z,17.21
2023-04-21T05:39:08.132Z,17.68
2023-04-21T05:40:08.270Z,18.51
2023-04-21T05:41:08.227Z,19.24
2023-04-21T05:42:08.397Z,19.93
2023-04-21T05:43:08.377Z,21.17
2023-04-21T05:44:08.408Z,21.98
2023-04-21T05:45:08.460Z,23.15
2023-04-21T05:46:08.571Z,24.52
2023-04-21T05:47:08.555Z,25.13
2023-04-21T05:48:08.624Z,26.73
2023-04-21T05:49:08.606Z,28.44
2023-04-21T05:50:08.675Z,29.93
2023-04-21T05:51:08.725Z,31.05
2023-04-21T05:52:08.899Z,32.04
2023-04-21T05:53:08.779Z,32.84
2023-04-21T05:54:08.837Z,32.91
2023-04-21T05:55:08.858Z,33.04
2023-04-21T05:56:08.872Z,34.71
2023-04-21T05:57:08.905Z,34.70
2023-04-21T05:58:09.876Z,35.81
2023-04-21T05:59:08.902Z,37.00
2023-04-21T06:00:08.977Z,36.63
2023-04-21T06:01:08.943Z,37.25
2023-04-21T06:02:09.021Z,37.57
2023-04-21T06:03:09.043Z,39.55
2023-04-21T06:04:09.060Z,39.85
2023-04-21T06:05:09.409Z,39.40
2023-04-21T06:06:08.969Z,40.36
2023-04-21T06:07:09.384Z,40.42
2023-04-21T06:08:09.050Z,40.54
2023-04-21T06:09:09.111Z,40.89
2023-04-21T06:10:09.193Z,41.95
2023-04-21T06:11:09.231Z,42.26
2023-04-21T06:12:09.302Z,42.71
2023-04-21T06:13:09.340Z,43.68
2023-04-21T06:14:09.417Z,43.95
2023-04-21T06:15:09.439Z,46.59
2023-04-21T06:16:09.598Z,48.17
2023-04-21T06:17:09.571Z,46.84
2023-04-21T06:18:09.708Z,43.32
2023-04-21T06:19:09.668Z,42.44
2023-04-21T06:20:09.721Z,42.07
2023-04-21T06:21:09.748Z,41.36
2023-04-21T06:22:09.829Z,40.40
2023-04-21T06:23:09.905Z,39.22
2023-04-21T06:24:09.924Z,38.12
2023-04-21T06:25:10.031Z,37.54
2023-04-21T06:26:10.047Z,36.58
2023-04-21T06:27:10.385Z,35.96
2023-04-21T06:28:10.119Z,31.21
2023-04-21T06:29:10.201Z,23.53
2023-04-21T06:30:10.266Z,21.04
2023-04-21T06:31:10.302Z,17.07
2023-04-21T06:32:10.525Z,15.03
2023-04-21T06:33:10.469Z,11.50
2023-04-21T06:34:10.433Z,8.77
2023-04-21T06:35:10.484Z,8.63
2023-04-21T06:36:10.455Z,8.74
2023-04-21T06:37:10.939Z,8.03
2023-04-21T06:38:10.479Z,8.40
2023-04-21T06:39:10.455Z,7.74
2023-04-21T06:40:10.476Z,7.56
2023-04-21T06:41:10.499Z,8.16
2023-04-21T06:42:10.527Z,7.92
2023-04-21T06:43:10.450Z,7.51
2023-04-21T06:44:10.526Z,6.79
2023-04-21T06:45:10.512Z,6.60
2023-04-21T06:46:10.522Z,7.11
2023-04-21T06:47:10.560Z,6.71
2023-04-21T06:48:10.590Z,6.84
2023-04-21T06:49:10.598Z,7.07
2023-04-21T06:50:10.648Z,6.80
2023-04-21T06:51:10.678Z,6.48
2023-04-21T06:52:11.129Z,5.69
2023-04-21T06:53:10.724Z,5.56
2023-04-21T06:54:10.721Z,6.42
2023-04-21T06:55:10.763Z,7.24
2023-04-21T06:56:10.781Z,6.94
2023-04-21T06:57:10.895Z,6.64
2023-04-21T06:58:10.849Z,8.76
2023-04-21T06:59:10.868Z,8.74
2023-04-21T07:00:10.948Z,7.73
2023-04-21T07:01:11.057Z,7.55
2023-04-21T07:02:11.434Z,8.32
2023-04-21T07:03:11.285Z,7.32
2023-04-21T07:04:11.204Z,6.15
2023-04-21T07:05:11.246Z,6.45
2023-04-21T07:06:11.285Z,7.12
2023-04-21T07:07:11.353Z,7.02
2023-04-21T07:08:11.371Z,5.20
2023-04-21T07:09:11.429Z,4.85
2023-04-21T07:10:11.480Z,4.84
2023-04-21T07:11:11.519Z,4.15
2023-04-21T07:12:11.602Z,5.00
2023-04-21T07:13:11.646Z,5.82
2023-04-21T07:14:11.718Z,6.08
2023-04-21T07:15:11.732Z,6.38
2023-04-21T07:16:11.833Z,4.95
2023-04-21T07:17:11.910Z,3.87
2023-04-21T07:18:11.977Z,2.90
2023-04-21T07:19:11.975Z,2.60
2023-04-21T07:20:12.032Z,2.64
2023-04-21T07:21:12.087Z,3.32
2023-04-21T07:22:12.141Z,3.82
2023-04-21T07:23:12.217Z,4.85
2023-04-21T07:24:12.291Z,5.51
2023-04-21T07:25:12.335Z,5.79
2023-04-21T07:26:12.425Z,5.98
2023-04-21T07:27:12.957Z,6.03
2023-04-21T07:28:12.510Z,6.99
2023-04-21T07:29:12.549Z,7.36
2023-04-21T07:30:12.611Z,7.46
2023-04-21T07:31:12.706Z,8.21
2023-04-21T07:32:12.917Z,10.23
2023-04-21T07:33:12.804Z,11.68
2023-04-21T07:34:12.829Z,12.48
2023-04-21T07:35:12.869Z,13.35
2023-04-21T07:36:13.199Z,14.67
2023-04-21T07:37:13.413Z,15.41
2023-04-21T07:38:12.968Z,15.10
2023-04-21T07:39:13.164Z,15.41
2023-04-21T07:40:13.042Z,15.42
2023-04-21T07:41:13.027Z,15.65
2023-04-21T07:42:13.080Z,15.64
2023-04-21T07:43:13.089Z,15.53
2023-04-21T07:44:13.078Z,14.59
2023-04-21T07:45:13.108Z,14.89
2023-04-21T07:46:13.211Z,15.42
2023-04-21T07:47:13.138Z,15.61
2023-04-21T07:48:13.204Z,15.22
2023-04-21T07:49:13.185Z,15.60
2023-04-21T07:50:13.174Z,15.68
2023-04-21T07:51:13.189Z,16.51
2023-04-21T07:52:13.194Z,13.96
2023-04-21T07:53:13.208Z,14.51
2023-04-21T07:54:13.217Z,14.65
2023-04-21T07:55:13.227Z,14.71
2023-04-21T07:56:13.304Z,14.93
2023-04-21T07:57:13.674Z,14.33
2023-04-21T07:58:13.215Z,14.07
2023-04-21T07:59:13.351Z,13.42
2023-04-21T08:00:13.345Z,12.32
2023-04-21T08:01:13.289Z,11.70
2023-04-21T08:02:13.459Z,11.25
2023-04-21T08:03:13.489Z,11.18
2023-04-21T08:04:13.538Z,10.88
2023-04-21T08:05:13.535Z,10.58
2023-04-21T08:06:13.572Z,10.38
2023-04-21T08:07:14.050Z,10.31
2023-04-21T08:08:13.537Z,10.11
2023-04-21T08:09:13.575Z,10.03
2023-04-21T08:10:13.626Z,10.04
2023-04-21T08:11:14.009Z,9.97
2023-04-21T08:12:13.703Z,10.36
2023-04-21T08:13:13.747Z,8.79
2023-04-21T08:14:13.765Z,8.34
2023-04-21T08:15:13.809Z,9.32
2023-04-21T08:16:13.934Z,9.76
2023-04-21T08:17:13.983Z,9.06
2023-04-21T08:18:14.001Z,9.69
2023-04-21T08:19:14.026Z,10.20
2023-04-21T08:20:14.042Z,10.37
2023-04-21T08:21:14.086Z,9.07
2023-04-21T08:22:14.433Z,7.93
2023-04-21T08:23:14.167Z,7.01
2023-04-21T08:24:14.183Z,5.99
2023-04-21T08:25:14.233Z,5.03
2023-04-21T08:26:14.241Z,3.40
2023-04-21T08:27:14.445Z,2.78
2023-04-21T08:28:14.307Z,3.68
2023-04-21T08:29:14.305Z,4.00
2023-04-21T08:30:14.287Z,3.20
2023-04-21T08:31:14.357Z,4.68
2023-04-21T08:32:14.382Z,5.92
2023-04-21T08:33:14.617Z,6.98
2023-04-21T08:34:14.451Z,7.03
2023-04-21T08:35:14.574Z,5.92
2023-04-21T08:36:28.300Z,6.05
2023-04-21T08:37:15.955Z,5.56
2023-04-21T08:38:14.735Z,5.28
2023-04-21T08:39:14.576Z,5.60
2023-04-21T08:40:14.531Z,5.39
2023-04-21T08:41:14.520Z,6.44
2023-04-21T08:42:14.539Z,7.11
2023-04-21T08:43:14.671Z,8.06
2023-04-21T08:44:14.543Z,8.82
2023-04-21T08:45:14.533Z,7.66
2023-04-21T08:46:14.536Z,8.47
2023-04-21T08:47:14.627Z,8.58
2023-04-21T08:48:14.651Z,9.95
2023-04-21T08:49:14.643Z,11.22
2023-04-21T08:50:14.678Z,11.68
2023-04-21T08:51:14.711Z,12.03
2023-04-21T08:52:14.840Z,10.75
2023-04-21T08:53:14.780Z,10.47
2023-04-21T08:54:14.804Z,10.73
2023-04-21T08:55:14.818Z,10.33
2023-04-21T08:56:14.848Z,9.18
2023-04-21T08:57:16.096Z,9.40
2023-04-21T08:58:15.007Z,9.16
2023-04-21T08:59:14.894Z,9.66
2023-04-21T09:00:14.903Z,9.81
2023-04-21T09:01:15.010Z,10.04
2023-04-21T09:02:15.064Z,9.29
2023-04-21T09:03:24.863Z,6.61
2023-04-21T09:04:16.177Z,6.62
2023-04-21T09:05:15.200Z,6.68
2023-04-21T09:06:15.329Z,6.79
2023-04-21T09:07:14.956Z,7.26
2023-04-21T09:08:14.937Z,7.51
2023-04-21T09:09:14.928Z,7.86
2023-04-21T09:10:14.919Z,8.53
2023-04-21T09:11:14.931Z,8.08
2023-04-21T09:12:14.935Z,8.05
2023-04-21T09:13:14.896Z,8.03
2023-04-21T09:14:14.867Z,6.75
2023-04-21T09:15:15.026Z,7.17
2023-04-21T09:16:14.943Z,7.10
2023-04-21T09:17:15.124Z,7.61
2023-04-21T09:18:15.001Z,7.52
2023-04-21T09:19:14.840Z,8.06
2023-04-21T09:20:14.841Z,8.03
2023-04-21T09:21:14.852Z,6.99
2023-04-21T09:22:14.839Z,7.24
2023-04-21T09:23:14.870Z,7.59
2023-04-21T09:24:14.931Z,7.05
2023-04-21T09:25:14.809Z,5.61
2023-04-21T09:26:14.819Z,4.56
2023-04-21T09:27:14.963Z,4.19
2023-04-21T09:28:15.490Z,5.21
2023-04-21T09:29:14.867Z,5.59
2023-04-21T09:30:14.782Z,5.75
2023-04-21T09:31:14.805Z,6.45
2023-04-21T09:32:14.776Z,7.88
2023-04-21T09:33:27.123Z,8.27
2023-04-21T09:34:15.789Z,8.29
2023-04-21T09:35:14.788Z,8.36
2023-04-21T09:36:14.777Z,7.60
2023-04-21T09:37:16.489Z,6.06
2023-04-21T09:38:14.897Z,4.82
2023-04-21T09:39:35.824Z,4.49
2023-04-21T09:40:15.922Z,4.49
2023-04-21T09:41:15.250Z,4.55
2023-04-21T09:42:14.868Z,4.01
2023-04-21T09:43:14.877Z,3.06
2023-04-21T09:44:14.885Z,3.01
2023-04-21T09:46:14.969Z,1.51
2023-04-21T09:47:15.256Z,0.73
2023-04-21T09:48:14.857Z,0.60
2023-04-21T09:49:14.846Z,0.71
2023-04-21T09:50:14.836Z,0.81
2023-04-21T09:51:28.666Z,1.09
2023-04-21T09:52:19.476Z,1.09
2023-04-21T09:53:14.834Z,0.88
2023-04-21T09:54:28.333Z,0.72
2023-04-21T09:55:15.814Z,0.38
2023-04-21T09:56:14.801Z,0.34
2023-04-21T09:57:14.974Z,0.34
2023-04-21T09:58:14.989Z,0.34
2023-04-21T09:59:14.799Z,0.34
2023-04-21T10:00:14.769Z,0.57
2023-04-21T10:01:14.882Z,0.81
2023-04-21T10:02:14.918Z,0.49
2023-04-21T10:03:14.878Z,0.34
2023-04-21T10:04:14.954Z,0.34
2023-04-21T10:05:14.765Z,0.34
2023-04-21T10:06:15.095Z,0.34
2023-04-21T10:07:14.994Z,0.34
2023-04-21T10:08:14.995Z,0.34
2023-04-21T10:09:14.854Z,0.50
2023-04-21T10:10:14.958Z,0.88
2023-04-21T10:11:15.037Z,0.99
2023-04-21T10:12:15.037Z,0.71
2023-04-21T10:13:15.478Z,0.75
2023-04-21T10:14:15.194Z,0.66
2023-04-21T10:15:15.210Z,0.66
2023-04-21T10:16:15.344Z,0.50
2023-04-21T10:17:16.648Z,0.56
2023-04-21T10:18:15.486Z,0.66
2023-04-21T10:19:15.427Z,1.08
2023-04-21T10:20:15.493Z,1.62
2023-04-21T10:21:15.589Z,1.57
2023-04-21T10:22:15.657Z,2.65
2023-04-21T10:23:16.132Z,2.88
2023-04-21T10:24:15.683Z,2.48
2023-04-21T10:25:15.744Z,1.96
2023-04-21T10:26:15.765Z,1.37
2023-04-21T10:27:15.832Z,1.57
2023-04-21T10:28:15.871Z,1.26
2023-04-21T10:29:15.876Z,1.75
2023-04-21T10:30:15.910Z,2.61
2023-04-21T10:31:16.037Z,2.71
2023-04-21T10:32:16.123Z,2.43
2023-04-21T10:33:16.014Z,1.91
2023-04-21T10:34:16.013Z,1.50
2023-04-21T10:35:16.042Z,1.59
2023-04-21T10:36:16.081Z,1.65
2023-04-21T10:37:16.126Z,1.32
2023-04-21T10:38:16.474Z,1.75
2023-04-21T10:39:16.172Z,1.20
2023-04-21T10:40:16.240Z,1.32
2023-04-21T10:41:16.274Z,1.41
2023-04-21T10:42:16.325Z,1.00
2023-04-21T10:43:16.368Z,1.05
2023-04-21T10:44:16.426Z,0.99
2023-04-21T10:45:16.470Z,0.62
2023-04-21T10:46:16.518Z,0.68
2023-04-21T10:47:16.605Z,0.77
2023-04-21T10:48:16.581Z,1.06
2023-04-21T10:49:16.628Z,0.81
2023-04-21T10:50:16.698Z,0.68
2023-04-21T10:51:16.698Z,0.62
2023-04-21T10:52:16.738Z,0.82
2023-04-21T10:53:16.785Z,0.34
2023-04-21T10:54:16.969Z,0.34
2023-04-21T10:55:16.962Z,0.38
2023-04-21T10:56:16.956Z,0.55
2023-04-21T10:57:16.998Z,0.58
2023-04-21T10:58:17.076Z,0.85
2023-04-21T10:59:17.249Z,0.66
2023-04-21T11:00:17.170Z,0.81
2023-04-21T11:01:17.281Z,0.82
2023-04-21T11:02:17.593Z,0.73
2023-04-21T11:03:17.468Z,0.91
2023-04-21T11:04:17.523Z,1.49
2023-04-21T11:05:17.383Z,1.69
2023-04-21T11:06:17.421Z,1.47
2023-04-21T11:07:17.517Z,2.00
2023-04-21T11:08:17.490Z,1.99
2023-04-21T11:09:17.523Z,1.78
2023-04-21T11:10:17.603Z,1.37
2023-04-21T11:11:17.629Z,0.97
2023-04-21T11:12:17.681Z,0.73
2023-04-21T11:13:18.058Z,0.52
2023-04-21T11:14:18.120Z,0.54
2023-04-21T11:15:17.869Z,0.46
2023-04-21T11:16:17.989Z,0.54
2023-04-21T11:17:17.958Z,0.81
2023-04-21T11:18:18.014Z,0.78
2023-04-21T11:19:18.089Z,0.51
2023-04-21T11:20:18.103Z,0.46
2023-04-21T11:21:18.376Z,0.49
2023-04-21T11:22:18.149Z,0.43
2023-04-21T11:23:18.523Z,0.34
2023-04-21T11:24:18.435Z,0.38
2023-04-21T11:25:18.170Z,0.45
2023-04-21T11:26:18.203Z,0.54
2023-04-21T11:27:18.193Z,0.50
2023-04-21T11:28:18.232Z,0.47
2023-04-21T11:29:18.246Z,0.50
2023-04-21T11:30:18.283Z,0.50
2023-04-21T11:31:18.371Z,0.58
2023-04-21T11:32:18.393Z,0.57
2023-04-21T11:33:18.499Z,0.60
2023-04-21T11:34:18.617Z,0.58
2023-04-21T11:35:18.469Z,0.71
2023-04-21T11:36:18.486Z,0.50
2023-04-21T11:37:18.520Z,0.42
2023-04-21T11:38:18.547Z,0.53
2023-04-21T11:39:20.915Z,0.52
2023-04-21T11:40:18.558Z,0.60
2023-04-21T11:41:18.556Z,0.68
2023-04-21T11:42:18.562Z,1.00
2023-04-21T11:43:18.589Z,1.25
2023-04-21T11:44:18.526Z,1.56
2023-04-21T11:45:20.533Z,1.80
2023-04-21T11:46:18.610Z,1.82
2023-04-21T11:47:18.528Z,1.95
2023-04-21T11:48:18.518Z,2.31
2023-04-21T11:49:18.538Z,3.39
2023-04-21T11:50:18.561Z,5.89
2023-04-21T11:51:20.745Z,7.45
2023-04-21T11:52:18.563Z,7.51
2023-04-21T11:53:18.576Z,8.07
2023-04-21T11:54:18.555Z,10.46
2023-04-21T11:55:18.551Z,14.42
2023-04-21T11:56:18.526Z,24.12
2023-04-21T11:57:18.547Z,27.67
2023-04-21T11:58:18.552Z,37.89
2023-04-21T11:59:18.507Z,45.44
2023-04-21T12:00:18.516Z,47.36
2023-04-21T12:01:18.489Z,52.73
2023-04-21T12:02:18.596Z,58.20
2023-04-21T12:03:18.599Z,62.46
2023-04-21T12:04:18.602Z,71.70
2023-04-21T12:05:18.529Z,81.63
2023-04-21T12:06:18.579Z,87.62
2023-04-21T12:07:18.559Z,100.14
2023-04-21T12:08:18.465Z,100.85
2023-04-21T12:09:18.453Z,101.53
2023-04-21T12:10:18.445Z,108.30
2023-04-21T12:11:18.424Z,106.84
2023-04-21T12:12:18.433Z,105.78
2023-04-21T12:13:18.421Z,119.48
2023-04-21T12:14:18.412Z,124.70
2023-04-21T12:15:18.432Z,130.03
2023-04-21T12:16:18.449Z,130.01
2023-04-21T12:17:18.415Z,131.89
2023-04-21T12:18:18.389Z,134.20
2023-04-21T12:19:18.372Z,136.11
2023-04-21T12:20:18.405Z,139.75
2023-04-21T12:21:18.394Z,147.91
2023-04-21T12:22:18.412Z,153.08
2023-04-21T12:23:18.359Z,138.20
2023-04-21T12:24:18.355Z,142.98
2023-04-21T12:25:18.330Z,128.37
2023-04-21T12:26:18.344Z,132.01
2023-04-21T12:27:18.324Z,115.99
2023-04-21T12:28:18.313Z,110.33
2023-04-21T12:29:18.331Z,108.57
2023-04-21T12:30:18.308Z,108.23
2023-04-21T12:31:18.296Z,93.23
2023-04-21T12:32:18.319Z,94.17
2023-04-21T12:33:18.462Z,91.11
2023-04-21T12:34:18.297Z,83.83
2023-04-21T12:35:18.301Z,77.37
2023-04-21T12:36:18.301Z,75.53
2023-04-21T12:37:18.248Z,76.07
2023-04-21T12:38:18.241Z,79.04
2023-04-21T12:39:18.247Z,71.21
2023-04-21T12:40:18.261Z,67.34
2023-04-21T12:41:18.263Z,65.29
2023-04-21T12:42:18.232Z,68.51
2023-04-21T12:43:18.224Z,66.67
2023-04-21T12:44:18.220Z,64.80
2023-04-21T12:45:18.196Z,62.80
2023-04-21T12:46:18.269Z,61.72
2023-04-21T12:47:18.235Z,58.64
2023-04-21T12:48:18.300Z,58.81
2023-04-21T12:49:18.289Z,52.48
2023-04-21T12:50:18.298Z,50.91
2023-04-21T12:51:18.361Z,51.30
2023-04-21T12:52:18.347Z,61.16
2023-04-21T12:53:18.351Z,52.43
2023-04-21T12:54:18.334Z,45.58
2023-04-21T12:55:18.354Z,42.19
2023-04-21T12:56:18.362Z,45.34
2023-04-21T12:57:18.365Z,42.57
2023-04-21T12:58:18.405Z,43.16
2023-04-21T12:59:18.370Z,41.33
2023-04-21T13:00:18.381Z,44.35
2023-04-21T13:01:18.418Z,39.44
2023-04-21T13:02:18.446Z,39.31
2023-04-21T13:03:18.517Z,37.41
2023-04-21T13:04:18.591Z,36.60
2023-04-21T13:05:18.409Z,30.03
2023-04-21T13:06:18.393Z,29.93
2023-04-21T13:07:18.404Z,31.27
2023-04-21T13:08:18.430Z,30.91
2023-04-21T13:09:18.401Z,30.09
2023-04-21T13:10:18.405Z,29.52
2023-04-21T13:11:18.439Z,27.57
2023-04-21T13:12:18.442Z,28.59